sensor_id;sensor_type;location;lat;lon;timestamp;P1;durP1;ratioP1;P2;durP2;ratioP2
38425;SDS011;24210;51.460;6.148;2022-07-29T00:02:06;2.97;;;0.80;;
38425;SDS011;24210;51.460;6.148;2022-07-29T00:04:33;2.40;;;0.77;;
38425;SDS011;24210;51.460;6.148;2022-07-29T00:06:59;2.08;;;0.73;;
38425;SDS011;24210;51.460;6.148;2022-07-29T00:09:24;5.70;;;1.73;;
38425;SDS011;24210;51.460;6.148;2022-07-29T00:11:49;3.70;;;0.60;;
38425;SDS011;24210;51.460;6.148;2022-07-29T00:14:14;2.40;;;0.73;;
38425;SDS011;24210;51.460;6.148;2022-07-29T00:16:39;3.80;;;1.07;;
38425;SDS011;24210;51.460;6.148;2022-07-29T00:19:05;3.80;;;0.90;;
38425;SDS011;24210;51.460;6.148;2022-07-29T00:21:30;2.23;;;0.90;;
38425;SDS011;24210;51.460;6.148;2022-07-29T00:23:55;2.77;;;0.70;;
38425;SDS011;24210;51.460;6.148;2022-07-29T00:26:21;6.70;;;1.37;;
38425;SDS011;24210;51.460;6.148;2022-07-29T00:28:46;3.13;;;0.73;;
38425;SDS011;24210;51.460;6.148;2022-07-29T00:31:12;0.77;;;0.40;;
38425;SDS011;24210;51.460;6.148;2022-07-29T00:33:37;3.30;;;0.70;;
38425;SDS011;24210;51.460;6.148;2022-07-29T00:36:02;3.37;;;1.23;;
38425;SDS011;24210;51.460;6.148;2022-07-29T00:38:28;3.43;;;0.87;;
38425;SDS011;24210;51.460;6.148;2022-07-29T00:40:53;2.63;;;0.87;;
38425;SDS011;24210;51.460;6.148;2022-07-29T00:43:18;2.33;;;0.80;;
38425;SDS011;24210;51.460;6.148;2022-07-29T00:45:43;5.33;;;1.33;;
38425;SDS011;24210;51.460;6.148;2022-07-29T00:48:08;3.80;;;1.07;;
38425;SDS011;24210;51.460;6.148;2022-07-29T00:50:34;3.33;;;1.10;;
38425;SDS011;24210;51.460;6.148;2022-07-29T00:53:00;5.17;;;1.23;;
38425;SDS011;24210;51.460;6.148;2022-07-29T00:55:26;4.25;;;1.30;;
38425;SDS011;24210;51.460;6.148;2022-07-29T00:57:51;5.50;;;1.40;;
38425;SDS011;24210;51.460;6.148;2022-07-29T01:00:24;1.90;;;0.70;;
38425;SDS011;24210;51.460;6.148;2022-07-29T01:02:49;4.07;;;1.13;;
38425;SDS011;24210;51.460;6.148;2022-07-29T01:05:16;2.77;;;1.70;;
38425;SDS011;24210;51.460;6.148;2022-07-29T01:07:42;8.90;;;1.48;;
38425;SDS011;24210;51.460;6.148;2022-07-29T01:10:09;3.60;;;1.27;;
38425;SDS011;24210;51.460;6.148;2022-07-29T01:12:34;3.00;;;1.00;;
38425;SDS011;24210;51.460;6.148;2022-07-29T01:15:00;5.93;;;1.48;;
38425;SDS011;24210;51.460;6.148;2022-07-29T01:17:34;4.15;;;1.10;;
38425;SDS011;24210;51.460;6.148;2022-07-29T01:27:51;4.60;;;1.10;;
38425;SDS011;24210;51.460;6.148;2022-07-29T01:30:19;3.67;;;1.00;;
38425;SDS011;24210;51.460;6.148;2022-07-29T01:32:47;1.92;;;0.82;;
38425;SDS011;24210;51.460;6.148;2022-07-29T01:37:39;2.33;;;0.70;;
38425;SDS011;24210;51.460;6.148;2022-07-29T01:40:16;9.60;;;1.25;;
38425;SDS011;24210;51.460;6.148;2022-07-29T01:42:44;3.72;;;1.38;;
38425;SDS011;24210;51.460;6.148;2022-07-29T01:50:22;11.77;;;2.80;;
38425;SDS011;24210;51.460;6.148;2022-07-29T01:52:56;5.45;;;1.80;;
38425;SDS011;24210;51.460;6.148;2022-07-29T01:55:22;8.65;;;1.80;;
38425;SDS011;24210;51.460;6.148;2022-07-29T01:57:49;4.68;;;2.28;;
38425;SDS011;24210;51.460;6.148;2022-07-29T02:00:15;6.43;;;1.83;;
38425;SDS011;24210;51.460;6.148;2022-07-29T02:02:41;5.67;;;1.90;;
38425;SDS011;24210;51.460;6.148;2022-07-29T02:05:07;3.80;;;2.10;;
38425;SDS011;24210;51.460;6.148;2022-07-29T02:07:35;14.48;;;3.28;;
38425;SDS011;24210;51.460;6.148;2022-07-29T02:10:02;7.95;;;2.22;;
38425;SDS011;24210;51.460;6.148;2022-07-29T02:12:27;9.10;;;2.47;;
38425;SDS011;24210;51.460;6.148;2022-07-29T02:14:54;8.63;;;2.45;;
38425;SDS011;24210;51.460;6.148;2022-07-29T02:17:23;8.10;;;2.10;;
38425;SDS011;24210;51.460;6.148;2022-07-29T02:19:50;4.20;;;1.95;;
38425;SDS011;24210;51.460;6.148;2022-07-29T02:22:16;7.72;;;1.75;;
38425;SDS011;24210;51.460;6.148;2022-07-29T02:24:43;8.80;;;2.47;;
38425;SDS011;24210;51.460;6.148;2022-07-29T02:27:09;6.50;;;1.67;;
38425;SDS011;24210;51.460;6.148;2022-07-29T02:29:34;9.63;;;2.17;;
38425;SDS011;24210;51.460;6.148;2022-07-29T02:32:00;5.80;;;1.65;;
38425;SDS011;24210;51.460;6.148;2022-07-29T02:34:26;8.23;;;1.85;;
38425;SDS011;24210;51.460;6.148;2022-07-29T02:36:52;6.57;;;2.07;;
38425;SDS011;24210;51.460;6.148;2022-07-29T02:39:17;3.90;;;1.00;;
38425;SDS011;24210;51.460;6.148;2022-07-29T02:41:46;10.60;;;2.57;;
38425;SDS011;24210;51.460;6.148;2022-07-29T02:44:13;3.83;;;1.30;;
38425;SDS011;24210;51.460;6.148;2022-07-29T02:49:06;6.20;;;1.50;;
38425;SDS011;24210;51.460;6.148;2022-07-29T02:51:38;4.18;;;1.63;;
38425;SDS011;24210;51.460;6.148;2022-07-29T02:54:06;3.83;;;1.20;;
38425;SDS011;24210;51.460;6.148;2022-07-29T02:56:32;5.28;;;1.50;;
38425;SDS011;24210;51.460;6.148;2022-07-29T02:59:00;4.30;;;1.02;;
38425;SDS011;24210;51.460;6.148;2022-07-29T03:01:30;2.38;;;1.38;;
38425;SDS011;24210;51.460;6.148;2022-07-29T03:03:56;3.92;;;1.60;;
38425;SDS011;24210;51.460;6.148;2022-07-29T03:06:25;6.35;;;2.20;;
38425;SDS011;24210;51.460;6.148;2022-07-29T03:08:52;4.60;;;1.33;;
38425;SDS011;24210;51.460;6.148;2022-07-29T03:11:18;3.42;;;2.08;;
38425;SDS011;24210;51.460;6.148;2022-07-29T03:13:43;3.63;;;1.20;;
38425;SDS011;24210;51.460;6.148;2022-07-29T03:16:09;2.77;;;1.63;;
38425;SDS011;24210;51.460;6.148;2022-07-29T03:18:34;5.33;;;1.73;;
38425;SDS011;24210;51.460;6.148;2022-07-29T03:21:00;4.23;;;1.40;;
38425;SDS011;24210;51.460;6.148;2022-07-29T03:23:25;4.17;;;2.00;;
38425;SDS011;24210;51.460;6.148;2022-07-29T03:25:52;3.22;;;1.42;;
38425;SDS011;24210;51.460;6.148;2022-07-29T03:28:18;5.63;;;1.27;;
38425;SDS011;24210;51.460;6.148;2022-07-29T03:30:44;4.22;;;1.42;;
38425;SDS011;24210;51.460;6.148;2022-07-29T03:33:09;3.77;;;1.73;;
38425;SDS011;24210;51.460;6.148;2022-07-29T03:35:35;3.03;;;1.57;;
38425;SDS011;24210;51.460;6.148;2022-07-29T03:38:00;4.37;;;1.63;;
38425;SDS011;24210;51.460;6.148;2022-07-29T03:40:27;4.27;;;1.60;;
38425;SDS011;24210;51.460;6.148;2022-07-29T03:42:55;3.05;;;1.33;;
38425;SDS011;24210;51.460;6.148;2022-07-29T03:45:21;4.07;;;2.07;;
38425;SDS011;24210;51.460;6.148;2022-07-29T03:47:51;1.52;;;1.25;;
38425;SDS011;24210;51.460;6.148;2022-07-29T03:50:18;14.55;;;1.77;;
38425;SDS011;24210;51.460;6.148;2022-07-29T03:52:45;3.90;;;1.67;;
38425;SDS011;24210;51.460;6.148;2022-07-29T03:55:10;3.50;;;1.63;;
38425;SDS011;24210;51.460;6.148;2022-07-29T03:57:35;4.23;;;1.63;;
38425;SDS011;24210;51.460;6.148;2022-07-29T04:00:02;3.27;;;1.27;;
38425;SDS011;24210;51.460;6.148;2022-07-29T04:02:28;3.60;;;1.92;;
38425;SDS011;24210;51.460;6.148;2022-07-29T04:04:53;4.57;;;1.50;;
38425;SDS011;24210;51.460;6.148;2022-07-29T04:07:19;4.50;;;1.73;;
38425;SDS011;24210;51.460;6.148;2022-07-29T04:09:44;2.93;;;1.93;;
38425;SDS011;24210;51.460;6.148;2022-07-29T04:12:09;6.57;;;2.10;;
38425;SDS011;24210;51.460;6.148;2022-07-29T04:14:35;6.33;;;1.53;;
38425;SDS011;24210;51.460;6.148;2022-07-29T04:17:00;4.50;;;1.40;;
38425;SDS011;24210;51.460;6.148;2022-07-29T04:19:25;2.93;;;1.80;;
38425;SDS011;24210;51.460;6.148;2022-07-29T04:21:51;3.97;;;1.60;;
38425;SDS011;24210;51.460;6.148;2022-07-29T04:24:16;4.47;;;1.80;;
38425;SDS011;24210;51.460;6.148;2022-07-29T04:26:42;4.60;;;1.50;;
38425;SDS011;24210;51.460;6.148;2022-07-29T04:29:07;5.63;;;2.03;;
38425;SDS011;24210;51.460;6.148;2022-07-29T04:31:32;4.53;;;1.97;;
38425;SDS011;24210;51.460;6.148;2022-07-29T04:33:57;1.97;;;1.83;;
38425;SDS011;24210;51.460;6.148;2022-07-29T04:36:22;3.27;;;2.27;;
38425;SDS011;24210;51.460;6.148;2022-07-29T04:38:48;2.87;;;1.53;;
38425;SDS011;24210;51.460;6.148;2022-07-29T04:41:13;3.10;;;1.83;;
38425;SDS011;24210;51.460;6.148;2022-07-29T04:43:39;8.40;;;2.23;;
38425;SDS011;24210;51.460;6.148;2022-07-29T04:46:05;2.87;;;2.50;;
38425;SDS011;24210;51.460;6.148;2022-07-29T04:48:31;3.97;;;2.40;;
38425;SDS011;24210;51.460;6.148;2022-07-29T04:50:56;6.33;;;2.20;;
38425;SDS011;24210;51.460;6.148;2022-07-29T04:53:21;4.00;;;2.33;;
38425;SDS011;24210;51.460;6.148;2022-07-29T04:55:47;5.77;;;2.33;;
38425;SDS011;24210;51.460;6.148;2022-07-29T04:58:12;5.07;;;2.80;;
38425;SDS011;24210;51.460;6.148;2022-07-29T05:00:37;3.47;;;2.67;;
38425;SDS011;24210;51.460;6.148;2022-07-29T05:03:03;2.60;;;2.40;;
38425;SDS011;24210;51.460;6.148;2022-07-29T05:05:28;5.93;;;3.20;;
38425;SDS011;24210;51.460;6.148;2022-07-29T05:07:53;4.87;;;3.30;;
38425;SDS011;24210;51.460;6.148;2022-07-29T05:10:18;4.90;;;4.50;;
38425;SDS011;24210;51.460;6.148;2022-07-29T05:12:43;5.77;;;3.53;;
38425;SDS011;24210;51.460;6.148;2022-07-29T05:15:09;4.60;;;3.70;;
38425;SDS011;24210;51.460;6.148;2022-07-29T05:17:34;4.23;;;3.20;;
38425;SDS011;24210;51.460;6.148;2022-07-29T05:19:59;4.07;;;2.53;;
38425;SDS011;24210;51.460;6.148;2022-07-29T05:22:24;6.70;;;3.30;;
38425;SDS011;24210;51.460;6.148;2022-07-29T05:24:50;8.30;;;2.80;;
38425;SDS011;24210;51.460;6.148;2022-07-29T05:27:15;4.37;;;2.77;;
38425;SDS011;24210;51.460;6.148;2022-07-29T05:29:40;5.70;;;2.87;;
38425;SDS011;24210;51.460;6.148;2022-07-29T05:32:06;3.03;;;1.90;;
38425;SDS011;24210;51.460;6.148;2022-07-29T05:34:31;5.40;;;2.27;;
38425;SDS011;24210;51.460;6.148;2022-07-29T05:36:56;5.93;;;2.40;;
38425;SDS011;24210;51.460;6.148;2022-07-29T05:39:22;9.13;;;2.80;;
38425;SDS011;24210;51.460;6.148;2022-07-29T05:41:47;6.97;;;2.27;;
38425;SDS011;24210;51.460;6.148;2022-07-29T05:44:12;3.57;;;2.20;;
38425;SDS011;24210;51.460;6.148;2022-07-29T05:46:38;7.28;;;2.33;;
38425;SDS011;24210;51.460;6.148;2022-07-29T05:49:03;4.50;;;1.97;;
38425;SDS011;24210;51.460;6.148;2022-07-29T05:51:29;6.63;;;2.97;;
38425;SDS011;24210;51.460;6.148;2022-07-29T05:53:55;5.53;;;2.70;;
38425;SDS011;24210;51.460;6.148;2022-07-29T05:56:20;3.63;;;2.30;;
38425;SDS011;24210;51.460;6.148;2022-07-29T05:58:45;8.23;;;2.20;;
38425;SDS011;24210;51.460;6.148;2022-07-29T06:01:10;3.87;;;2.37;;
38425;SDS011;24210;51.460;6.148;2022-07-29T06:03:35;2.87;;;2.63;;
38425;SDS011;24210;51.460;6.148;2022-07-29T06:06:03;3.15;;;2.63;;
38425;SDS011;24210;51.460;6.148;2022-07-29T06:08:28;2.67;;;2.27;;
38425;SDS011;24210;51.460;6.148;2022-07-29T06:10:53;4.63;;;2.03;;
38425;SDS011;24210;51.460;6.148;2022-07-29T06:13:19;2.47;;;2.20;;
38425;SDS011;24210;51.460;6.148;2022-07-29T06:15:44;5.97;;;2.03;;
38425;SDS011;24210;51.460;6.148;2022-07-29T06:18:09;3.10;;;2.30;;
38425;SDS011;24210;51.460;6.148;2022-07-29T06:20:35;4.38;;;2.90;;
38425;SDS011;24210;51.460;6.148;2022-07-29T06:23:01;7.43;;;3.00;;
38425;SDS011;24210;51.460;6.148;2022-07-29T06:25:29;4.00;;;2.97;;
38425;SDS011;24210;51.460;6.148;2022-07-29T06:27:55;3.83;;;2.78;;
38425;SDS011;24210;51.460;6.148;2022-07-29T06:30:20;6.50;;;2.60;;
38425;SDS011;24210;51.460;6.148;2022-07-29T06:32:45;2.30;;;2.03;;
38425;SDS011;24210;51.460;6.148;2022-07-29T06:35:11;4.70;;;2.50;;
38425;SDS011;24210;51.460;6.148;2022-07-29T06:37:36;5.07;;;2.83;;
38425;SDS011;24210;51.460;6.148;2022-07-29T06:40:01;5.73;;;3.07;;
38425;SDS011;24210;51.460;6.148;2022-07-29T06:42:47;9.20;;;3.08;;
38425;SDS011;24210;51.460;6.148;2022-07-29T06:45:12;9.37;;;2.97;;
38425;SDS011;24210;51.460;6.148;2022-07-29T06:47:37;5.70;;;3.97;;
38425;SDS011;24210;51.460;6.148;2022-07-29T06:50:02;8.77;;;4.80;;
38425;SDS011;24210;51.460;6.148;2022-07-29T06:52:28;10.07;;;5.90;;
38425;SDS011;24210;51.460;6.148;2022-07-29T06:54:53;8.10;;;5.33;;
38425;SDS011;24210;51.460;6.148;2022-07-29T06:57:19;6.88;;;5.40;;
38425;SDS011;24210;51.460;6.148;2022-07-29T06:59:45;8.00;;;4.33;;
38425;SDS011;24210;51.460;6.148;2022-07-29T07:02:10;5.03;;;4.13;;
38425;SDS011;24210;51.460;6.148;2022-07-29T07:04:35;4.63;;;3.30;;
38425;SDS011;24210;51.460;6.148;2022-07-29T07:07:01;4.23;;;3.47;;
38425;SDS011;24210;51.460;6.148;2022-07-29T07:09:26;4.83;;;2.83;;
38425;SDS011;24210;51.460;6.148;2022-07-29T07:11:51;3.83;;;2.93;;
38425;SDS011;24210;51.460;6.148;2022-07-29T07:14:16;3.33;;;2.93;;
38425;SDS011;24210;51.460;6.148;2022-07-29T07:16:41;4.30;;;2.90;;
38425;SDS011;24210;51.460;6.148;2022-07-29T07:19:07;3.73;;;2.50;;
38425;SDS011;24210;51.460;6.148;2022-07-29T07:21:32;5.90;;;3.43;;
38425;SDS011;24210;51.460;6.148;2022-07-29T07:23:58;2.93;;;2.03;;
38425;SDS011;24210;51.460;6.148;2022-07-29T07:26:23;2.65;;;2.45;;
38425;SDS011;24210;51.460;6.148;2022-07-29T07:28:49;3.60;;;2.80;;
38425;SDS011;24210;51.460;6.148;2022-07-29T07:31:14;7.03;;;3.03;;
38425;SDS011;24210;51.460;6.148;2022-07-29T07:33:39;6.23;;;2.93;;
38425;SDS011;24210;51.460;6.148;2022-07-29T07:36:04;4.03;;;3.03;;
38425;SDS011;24210;51.460;6.148;2022-07-29T07:38:30;3.27;;;2.97;;
38425;SDS011;24210;51.460;6.148;2022-07-29T07:40:55;2.73;;;2.53;;
38425;SDS011;24210;51.460;6.148;2022-07-29T07:43:20;4.93;;;2.50;;
38425;SDS011;24210;51.460;6.148;2022-07-29T07:45:46;3.45;;;3.00;;
38425;SDS011;24210;51.460;6.148;2022-07-29T07:48:12;5.40;;;3.30;;
38425;SDS011;24210;51.460;6.148;2022-07-29T07:50:37;5.87;;;2.57;;
38425;SDS011;24210;51.460;6.148;2022-07-29T07:53:02;6.13;;;3.77;;
38425;SDS011;24210;51.460;6.148;2022-07-29T07:55:27;4.83;;;2.93;;
38425;SDS011;24210;51.460;6.148;2022-07-29T07:57:56;4.53;;;3.57;;
38425;SDS011;24210;51.460;6.148;2022-07-29T08:00:21;5.47;;;3.05;;
38425;SDS011;24210;51.460;6.148;2022-07-29T08:02:46;3.97;;;3.67;;
38425;SDS011;24210;51.460;6.148;2022-07-29T08:05:12;4.00;;;2.60;;
38425;SDS011;24210;51.460;6.148;2022-07-29T08:07:41;4.03;;;3.25;;
38425;SDS011;24210;51.460;6.148;2022-07-29T08:10:06;5.00;;;3.60;;
38425;SDS011;24210;51.460;6.148;2022-07-29T08:12:32;6.43;;;5.23;;
38425;SDS011;24210;51.460;6.148;2022-07-29T08:14:57;4.80;;;3.10;;
38425;SDS011;24210;51.460;6.148;2022-07-29T08:17:22;4.10;;;3.70;;
38425;SDS011;24210;51.460;6.148;2022-07-29T08:19:47;7.13;;;4.33;;
38425;SDS011;24210;51.460;6.148;2022-07-29T08:22:13;4.40;;;3.67;;
38425;SDS011;24210;51.460;6.148;2022-07-29T08:24:38;7.23;;;4.33;;
38425;SDS011;24210;51.460;6.148;2022-07-29T08:27:17;6.25;;;4.97;;
38425;SDS011;24210;51.460;6.148;2022-07-29T08:29:42;4.97;;;4.20;;
38425;SDS011;24210;51.460;6.148;2022-07-29T08:32:07;5.80;;;3.60;;
38425;SDS011;24210;51.460;6.148;2022-07-29T08:34:33;4.80;;;4.30;;
38425;SDS011;24210;51.460;6.148;2022-07-29T08:36:58;4.37;;;4.03;;
38425;SDS011;24210;51.460;6.148;2022-07-29T08:39:23;3.50;;;3.20;;
38425;SDS011;24210;51.460;6.148;2022-07-29T08:41:49;8.55;;;4.53;;
38425;SDS011;24210;51.460;6.148;2022-07-29T08:44:16;7.13;;;4.30;;
38425;SDS011;24210;51.460;6.148;2022-07-29T08:46:42;4.00;;;3.70;;
38425;SDS011;24210;51.460;6.148;2022-07-29T08:49:07;5.13;;;3.93;;
38425;SDS011;24210;51.460;6.148;2022-07-29T08:51:32;4.90;;;3.80;;
38425;SDS011;24210;51.460;6.148;2022-07-29T08:54:00;8.88;;;5.03;;
38425;SDS011;24210;51.460;6.148;2022-07-29T08:56:25;5.10;;;4.20;;
38425;SDS011;24210;51.460;6.148;2022-07-29T08:58:50;6.17;;;4.73;;
38425;SDS011;24210;51.460;6.148;2022-07-29T09:01:17;6.17;;;4.17;;
38425;SDS011;24210;51.460;6.148;2022-07-29T09:03:43;5.30;;;4.35;;
38425;SDS011;24210;51.460;6.148;2022-07-29T09:06:09;5.93;;;4.22;;
38425;SDS011;24210;51.460;6.148;2022-07-29T09:08:37;5.05;;;4.60;;
38425;SDS011;24210;51.460;6.148;2022-07-29T09:11:03;10.63;;;4.23;;
38425;SDS011;24210;51.460;6.148;2022-07-29T09:13:28;9.67;;;4.73;;
38425;SDS011;24210;51.460;6.148;2022-07-29T09:15:54;5.50;;;5.00;;
38425;SDS011;24210;51.460;6.148;2022-07-29T09:18:34;7.07;;;5.17;;
38425;SDS011;24210;51.460;6.148;2022-07-29T09:21:00;7.47;;;4.47;;
38425;SDS011;24210;51.460;6.148;2022-07-29T09:26:27;7.63;;;5.05;;
38425;SDS011;24210;51.460;6.148;2022-07-29T09:28:52;7.20;;;4.68;;
38425;SDS011;24210;51.460;6.148;2022-07-29T09:31:18;6.07;;;4.67;;
38425;SDS011;24210;51.460;6.148;2022-07-29T09:33:51;7.20;;;4.60;;
38425;SDS011;24210;51.460;6.148;2022-07-29T09:36:16;5.77;;;4.90;;
38425;SDS011;24210;51.460;6.148;2022-07-29T09:38:42;5.40;;;4.60;;
38425;SDS011;24210;51.460;6.148;2022-07-29T09:41:07;7.37;;;5.13;;
38425;SDS011;24210;51.460;6.148;2022-07-29T09:43:33;7.72;;;5.47;;
38425;SDS011;24210;51.460;6.148;2022-07-29T09:46:11;6.90;;;4.93;;
38425;SDS011;24210;51.460;6.148;2022-07-29T09:48:37;6.05;;;5.30;;
38425;SDS011;24210;51.460;6.148;2022-07-29T09:51:02;8.27;;;6.07;;
38425;SDS011;24210;51.460;6.148;2022-07-29T09:55:58;9.25;;;7.10;;
38425;SDS011;24210;51.460;6.148;2022-07-29T09:58:23;8.97;;;6.83;;
38425;SDS011;24210;51.460;6.148;2022-07-29T10:00:49;8.90;;;6.83;;
38425;SDS011;24210;51.460;6.148;2022-07-29T10:03:15;8.77;;;5.70;;
38425;SDS011;24210;51.460;6.148;2022-07-29T10:05:41;7.03;;;5.78;;
38425;SDS011;24210;51.460;6.148;2022-07-29T10:08:07;7.78;;;6.07;;
38425;SDS011;24210;51.460;6.148;2022-07-29T10:10:34;12.15;;;6.10;;
38425;SDS011;24210;51.460;6.148;2022-07-29T10:13:04;5.38;;;4.82;;
38425;SDS011;24210;51.460;6.148;2022-07-29T10:15:30;7.32;;;6.00;;
38425;SDS011;24210;51.460;6.148;2022-07-29T10:17:56;6.60;;;6.00;;
38425;SDS011;24210;51.460;6.148;2022-07-29T10:20:23;6.73;;;4.90;;
38425;SDS011;24210;51.460;6.148;2022-07-29T10:22:48;6.15;;;4.60;;
38425;SDS011;24210;51.460;6.148;2022-07-29T10:25:14;6.17;;;5.00;;
38425;SDS011;24210;51.460;6.148;2022-07-29T10:27:39;12.13;;;5.60;;
38425;SDS011;24210;51.460;6.148;2022-07-29T10:30:05;5.73;;;5.13;;
38425;SDS011;24210;51.460;6.148;2022-07-29T10:37:28;5.40;;;4.60;;
38425;SDS011;24210;51.460;6.148;2022-07-29T10:42:59;5.88;;;4.97;;
38425;SDS011;24210;51.460;6.148;2022-07-29T10:45:29;9.45;;;6.20;;
38425;SDS011;24210;51.460;6.148;2022-07-29T10:48:04;7.20;;;5.87;;
38425;SDS011;24210;51.460;6.148;2022-07-29T10:53:15;10.52;;;7.18;;
38425;SDS011;24210;51.460;6.148;2022-07-29T10:55:40;8.80;;;6.40;;
38425;SDS011;24210;51.460;6.148;2022-07-29T11:00:38;8.27;;;6.03;;
38425;SDS011;24210;51.460;6.148;2022-07-29T11:03:03;6.63;;;5.33;;
38425;SDS011;24210;51.460;6.148;2022-07-29T11:05:29;4.37;;;3.97;;
38425;SDS011;24210;51.460;6.148;2022-07-29T11:10:48;6.05;;;5.18;;
38425;SDS011;24210;51.460;6.148;2022-07-29T11:13:39;9.43;;;5.03;;
38425;SDS011;24210;51.460;6.148;2022-07-29T11:15:58;5.43;;;4.17;;
38425;SDS011;24210;51.460;6.148;2022-07-29T11:18:24;5.30;;;4.80;;
38425;SDS011;24210;51.460;6.148;2022-07-29T11:20:50;6.07;;;4.30;;
38425;SDS011;24210;51.460;6.148;2022-07-29T11:25:43;10.17;;;5.70;;
38425;SDS011;24210;51.460;6.148;2022-07-29T11:28:10;3.57;;;3.27;;
38425;SDS011;24210;51.460;6.148;2022-07-29T11:30:48;5.22;;;3.28;;
38425;SDS011;24210;51.460;6.148;2022-07-29T11:33:30;6.07;;;3.90;;
38425;SDS011;24210;51.460;6.148;2022-07-29T11:36:12;6.03;;;4.22;;
38425;SDS011;24210;51.460;6.148;2022-07-29T11:38:37;4.45;;;3.47;;
38425;SDS011;24210;51.460;6.148;2022-07-29T11:41:22;5.17;;;3.07;;
38425;SDS011;24210;51.460;6.148;2022-07-29T11:43:50;6.60;;;3.78;;
38425;SDS011;24210;51.460;6.148;2022-07-29T11:49:00;4.60;;;3.40;;
38425;SDS011;24210;51.460;6.148;2022-07-29T11:51:27;5.40;;;4.25;;
38425;SDS011;24210;51.460;6.148;2022-07-29T11:53:52;7.70;;;3.20;;
38425;SDS011;24210;51.460;6.148;2022-07-29T11:56:19;6.43;;;3.38;;
38425;SDS011;24210;51.460;6.148;2022-07-29T11:58:46;5.07;;;3.13;;
38425;SDS011;24210;51.460;6.148;2022-07-29T12:01:15;7.90;;;3.83;;
38425;SDS011;24210;51.460;6.148;2022-07-29T12:03:41;8.85;;;4.05;;
38425;SDS011;24210;51.460;6.148;2022-07-29T12:06:13;11.57;;;5.23;;
38425;SDS011;24210;51.460;6.148;2022-07-29T12:08:42;5.53;;;4.57;;
38425;SDS011;24210;51.460;6.148;2022-07-29T12:11:14;6.00;;;2.90;;
38425;SDS011;24210;51.460;6.148;2022-07-29T12:13:39;7.82;;;4.47;;
38425;SDS011;24210;51.460;6.148;2022-07-29T12:16:05;6.00;;;4.70;;
38425;SDS011;24210;51.460;6.148;2022-07-29T12:18:30;7.00;;;3.60;;
38425;SDS011;24210;51.460;6.148;2022-07-29T12:20:56;8.07;;;3.30;;
38425;SDS011;24210;51.460;6.148;2022-07-29T12:23:22;7.25;;;3.90;;
38425;SDS011;24210;51.460;6.148;2022-07-29T12:25:47;7.97;;;4.00;;
38425;SDS011;24210;51.460;6.148;2022-07-29T12:28:13;5.00;;;4.00;;
38425;SDS011;24210;51.460;6.148;2022-07-29T12:33:12;4.87;;;4.10;;
38425;SDS011;24210;51.460;6.148;2022-07-29T12:35:38;5.05;;;3.50;;
38425;SDS011;24210;51.460;6.148;2022-07-29T12:38:03;10.83;;;5.80;;
38425;SDS011;24210;51.460;6.148;2022-07-29T12:40:28;7.20;;;4.83;;
38425;SDS011;24210;51.460;6.148;2022-07-29T12:43:07;3.77;;;3.27;;
38425;SDS011;24210;51.460;6.148;2022-07-29T12:45:34;5.70;;;3.80;;
38425;SDS011;24210;51.460;6.148;2022-07-29T12:47:59;4.23;;;2.70;;
38425;SDS011;24210;51.460;6.148;2022-07-29T12:50:24;3.80;;;2.07;;
38425;SDS011;24210;51.460;6.148;2022-07-29T12:52:50;2.63;;;2.33;;
38425;SDS011;24210;51.460;6.148;2022-07-29T12:55:15;2.70;;;1.93;;
38425;SDS011;24210;51.460;6.148;2022-07-29T12:57:47;6.67;;;1.87;;
38425;SDS011;24210;51.460;6.148;2022-07-29T13:00:13;2.38;;;2.17;;
38425;SDS011;24210;51.460;6.148;2022-07-29T13:02:39;4.72;;;2.67;;
38425;SDS011;24210;51.460;6.148;2022-07-29T13:05:05;3.28;;;2.58;;
38425;SDS011;24210;51.460;6.148;2022-07-29T13:07:32;5.80;;;2.47;;
38425;SDS011;24210;51.460;6.148;2022-07-29T13:12:23;3.88;;;2.90;;
38425;SDS011;24210;51.460;6.148;2022-07-29T13:14:48;4.00;;;3.00;;
38425;SDS011;24210;51.460;6.148;2022-07-29T13:17:18;3.95;;;2.92;;
38425;SDS011;24210;51.460;6.148;2022-07-29T13:19:49;6.63;;;1.88;;
38425;SDS011;24210;51.460;6.148;2022-07-29T13:22:16;2.60;;;2.35;;
38425;SDS011;24210;51.460;6.148;2022-07-29T13:24:49;5.80;;;2.67;;
38425;SDS011;24210;51.460;6.148;2022-07-29T13:27:15;3.35;;;2.10;;
38425;SDS011;24210;51.460;6.148;2022-07-29T13:29:40;5.38;;;2.53;;
38425;SDS011;24210;51.460;6.148;2022-07-29T13:32:05;6.33;;;2.37;;
38425;SDS011;24210;51.460;6.148;2022-07-29T13:34:31;8.07;;;2.10;;
38425;SDS011;24210;51.460;6.148;2022-07-29T13:36:56;6.13;;;3.27;;
38425;SDS011;24210;51.460;6.148;2022-07-29T13:39:21;5.77;;;2.80;;
38425;SDS011;24210;51.460;6.148;2022-07-29T13:41:46;4.03;;;2.23;;
38425;SDS011;24210;51.460;6.148;2022-07-29T13:44:12;5.50;;;3.10;;
38425;SDS011;24210;51.460;6.148;2022-07-29T13:46:37;1.70;;;1.60;;
38425;SDS011;24210;51.460;6.148;2022-07-29T13:49:02;3.53;;;1.70;;
38425;SDS011;24210;51.460;6.148;2022-07-29T13:51:27;2.07;;;1.57;;
38425;SDS011;24210;51.460;6.148;2022-07-29T13:53:53;4.20;;;1.70;;
38425;SDS011;24210;51.460;6.148;2022-07-29T13:56:18;4.97;;;1.87;;
38425;SDS011;24210;51.460;6.148;2022-07-29T13:58:43;3.93;;;1.90;;
38425;SDS011;24210;51.460;6.148;2022-07-29T14:01:08;2.40;;;1.93;;
38425;SDS011;24210;51.460;6.148;2022-07-29T14:03:33;2.97;;;2.43;;
38425;SDS011;24210;51.460;6.148;2022-07-29T14:05:59;7.90;;;2.27;;
38425;SDS011;24210;51.460;6.148;2022-07-29T14:08:25;3.47;;;2.38;;
38425;SDS011;24210;51.460;6.148;2022-07-29T14:10:50;2.30;;;2.10;;
38425;SDS011;24210;51.460;6.148;2022-07-29T14:13:15;2.33;;;2.13;;
38425;SDS011;24210;51.460;6.148;2022-07-29T14:15:40;5.87;;;2.60;;
38425;SDS011;24210;51.460;6.148;2022-07-29T14:18:05;3.33;;;2.37;;
38425;SDS011;24210;51.460;6.148;2022-07-29T14:20:31;6.67;;;3.67;;
38425;SDS011;24210;51.460;6.148;2022-07-29T14:22:56;3.00;;;2.27;;
38425;SDS011;24210;51.460;6.148;2022-07-29T14:25:22;4.27;;;2.60;;
38425;SDS011;24210;51.460;6.148;2022-07-29T14:27:47;3.58;;;2.17;;
38425;SDS011;24210;51.460;6.148;2022-07-29T14:30:12;5.63;;;2.87;;
38425;SDS011;24210;51.460;6.148;2022-07-29T14:32:38;4.60;;;2.27;;
38425;SDS011;24210;51.460;6.148;2022-07-29T14:35:03;6.47;;;2.40;;
38425;SDS011;24210;51.460;6.148;2022-07-29T14:37:29;4.07;;;2.10;;
38425;SDS011;24210;51.460;6.148;2022-07-29T14:39:54;4.77;;;3.43;;
38425;SDS011;24210;51.460;6.148;2022-07-29T14:42:24;6.05;;;2.42;;
38425;SDS011;24210;51.460;6.148;2022-07-29T14:44:49;2.80;;;2.13;;
38425;SDS011;24210;51.460;6.148;2022-07-29T14:47:14;3.00;;;1.97;;
38425;SDS011;24210;51.460;6.148;2022-07-29T14:49:39;3.43;;;2.13;;
38425;SDS011;24210;51.460;6.148;2022-07-29T14:52:05;5.47;;;3.50;;
38425;SDS011;24210;51.460;6.148;2022-07-29T14:54:30;3.03;;;2.30;;
38425;SDS011;24210;51.460;6.148;2022-07-29T14:56:56;3.07;;;2.23;;
38425;SDS011;24210;51.460;6.148;2022-07-29T14:59:22;2.47;;;2.08;;
38425;SDS011;24210;51.460;6.148;2022-07-29T15:01:47;3.13;;;2.47;;
38425;SDS011;24210;51.460;6.148;2022-07-29T15:04:12;2.47;;;2.27;;
38425;SDS011;24210;51.460;6.148;2022-07-29T15:06:37;2.00;;;1.77;;
38425;SDS011;24210;51.460;6.148;2022-07-29T15:09:03;5.40;;;3.27;;
38425;SDS011;24210;51.460;6.148;2022-07-29T15:11:28;3.87;;;3.00;;
38425;SDS011;24210;51.460;6.148;2022-07-29T15:13:53;4.30;;;2.27;;
38425;SDS011;24210;51.460;6.148;2022-07-29T15:16:18;9.37;;;2.77;;
38425;SDS011;24210;51.460;6.148;2022-07-29T15:18:44;2.97;;;1.93;;
38425;SDS011;24210;51.460;6.148;2022-07-29T15:21:09;3.37;;;2.70;;
38425;SDS011;24210;51.460;6.148;2022-07-29T15:23:34;4.63;;;2.00;;
38425;SDS011;24210;51.460;6.148;2022-07-29T15:26:03;6.43;;;2.83;;
38425;SDS011;24210;51.460;6.148;2022-07-29T15:28:29;4.23;;;1.90;;
38425;SDS011;24210;51.460;6.148;2022-07-29T15:30:54;2.57;;;2.37;;
38425;SDS011;24210;51.460;6.148;2022-07-29T15:33:19;2.10;;;1.80;;